createdAt,value
2023-02-24T00:00:32.259Z,5.70
2023-02-24T00:03:29.041Z,5.70
2023-02-24T00:06:14.026Z,5.70
2023-02-24T00:08:56.533Z,5.70
2023-02-24T00:11:41.790Z,5.70
2023-02-24T00:14:26.884Z,5.70
2023-02-24T00:17:10.024Z,5.80
2023-02-24T00:19:53.125Z,5.80
2023-02-24T00:22:35.671Z,5.80
2023-02-24T00:25:18.255Z,5.80
2023-02-24T00:28:01.820Z,5.80
2023-02-24T00:30:44.328Z,5.80
2023-02-24T00:33:28.728Z,5.80
2023-02-24T00:36:24.023Z,5.90
2023-02-24T00:39:09.718Z,5.90
2023-02-24T00:42:04.319Z,5.90
2023-02-24T00:44:47.316Z,5.90
2023-02-24T00:47:30.636Z,5.90
2023-02-24T00:50:14.206Z,6.00
2023-02-24T00:52:57.491Z,6.00
2023-02-24T00:55:40.398Z,6.00
2023-02-24T00:58:23.171Z,6.00
2023-02-24T01:01:09.112Z,6.00
2023-02-24T01:03:54.911Z,6.00
2023-02-24T01:06:45.034Z,6.00
2023-02-24T01:09:30.638Z,5.90
2023-02-24T01:12:32.013Z,6.00
2023-02-24T01:15:16.418Z,6.00
2023-02-24T01:17:58.608Z,6.00
2023-02-24T01:20:41.147Z,6.00
2023-02-24T01:23:24.301Z,6.00
2023-02-24T01:26:06.748Z,6.00
2023-02-24T01:28:49.334Z,6.00
2023-02-24T01:31:33.197Z,6.10
2023-02-24T01:34:15.998Z,6.10
2023-02-24T01:36:58.461Z,6.10
2023-02-24T01:39:40.660Z,6.10
2023-02-24T01:42:24.242Z,6.10
2023-02-24T01:45:17.110Z,6.10
2023-02-24T01:48:05.404Z,6.10
2023-02-24T01:50:50.333Z,6.10
2023-02-24T01:53:32.853Z,6.10
2023-02-24T01:56:16.405Z,6.10
2023-02-24T01:59:00.715Z,6.10
2023-02-24T02:01:46.028Z,6.10
2023-02-24T02:04:53.904Z,6.00
2023-02-24T02:07:38.887Z,6.10
2023-02-24T02:10:21.353Z,6.00
2023-02-24T02:13:04.646Z,6.00
2023-02-24T02:16:00.411Z,6.00
2023-02-24T02:19:06.224Z,6.00
2023-02-24T02:21:58.609Z,6.00
2023-02-24T02:24:43.959Z,6.00
2023-02-24T02:27:51.277Z,6.00
2023-02-24T02:31:12.799Z,6.00
2023-02-24T02:34:17.169Z,6.00
2023-02-24T02:37:12.173Z,6.00
2023-02-24T02:40:16.801Z,6.00
2023-02-24T02:43:29.627Z,6.10
2023-02-24T02:46:17.789Z,6.10
2023-02-24T02:49:03.329Z,6.00
2023-02-24T02:51:52.714Z,6.00
2023-02-24T02:54:50.057Z,6.00
2023-02-24T02:57:33.999Z,6.10
2023-02-24T03:00:23.932Z,6.00
2023-02-24T03:03:12.757Z,6.00
2023-02-24T03:06:04.265Z,6.00
2023-02-24T03:08:58.294Z,6.00
2023-02-24T03:11:48.647Z,6.00
2023-02-24T03:14:37.247Z,6.00
2023-02-24T03:17:26.648Z,6.00
2023-02-24T03:20:23.679Z,6.00
2023-02-24T03:23:16.813Z,6.00
2023-02-24T03:26:17.308Z,6.00
2023-02-24T03:29:18.398Z,6.00
2023-02-24T03:32:06.600Z,6.00
2023-02-24T03:34:56.955Z,6.00
2023-02-24T03:37:40.023Z,6.00
2023-02-24T03:40:28.565Z,6.00
2023-02-24T03:43:19.603Z,6.00
2023-02-24T03:46:02.512Z,6.00
2023-02-24T03:48:53.142Z,6.00
2023-02-24T03:51:37.350Z,6.00
2023-02-24T03:54:49.445Z,6.00
2023-02-24T03:57:59.952Z,6.00
2023-02-24T04:01:22.025Z,6.00
2023-02-24T04:04:15.601Z,6.00
2023-02-24T04:07:31.569Z,6.00
2023-02-24T04:10:52.702Z,6.00
2023-02-24T04:13:51.088Z,6.00
2023-02-24T04:16:48.216Z,6.00
2023-02-24T04:19:38.499Z,6.00
2023-02-24T04:22:24.751Z,6.00
2023-02-24T04:25:13.879Z,6.00
2023-02-24T04:28:00.696Z,6.00
2023-02-24T04:30:48.530Z,6.00
2023-02-24T04:33:31.417Z,6.00
2023-02-24T04:36:14.286Z,6.00
2023-02-24T04:38:57.213Z,6.00
2023-02-24T04:41:39.989Z,6.00
2023-02-24T04:44:22.842Z,6.00
2023-02-24T04:47:05.312Z,6.00
2023-02-24T04:49:47.389Z,6.00
2023-02-24T04:52:30.737Z,6.00
2023-02-24T04:55:13.063Z,6.00
2023-02-24T04:57:57.322Z,6.00
2023-02-24T05:00:42.114Z,6.00
2023-02-24T05:03:28.500Z,6.00
2023-02-24T05:06:16.277Z,6.00
2023-02-24T05:09:01.507Z,6.00
2023-02-24T05:11:46.554Z,6.00
2023-02-24T05:14:29.169Z,6.00
2023-02-24T05:17:13.980Z,6.00
2023-02-24T05:20:15.510Z,6.00
2023-02-24T05:22:57.750Z,6.00
2023-02-24T05:25:43.182Z,6.00
2023-02-24T05:28:26.206Z,6.00
2023-02-24T05:31:08.955Z,6.00
2023-02-24T05:33:57.869Z,6.10
2023-02-24T05:36:41.007Z,6.10
2023-02-24T05:39:25.268Z,6.00
2023-02-24T05:42:08.224Z,6.10
2023-02-24T05:44:50.399Z,6.00
2023-02-24T05:47:32.806Z,6.10
2023-02-24T05:50:15.955Z,6.10
2023-02-24T05:52:58.441Z,6.10
2023-02-24T05:55:40.685Z,6.10
2023-02-24T05:58:24.632Z,6.10
2023-02-24T06:01:19.529Z,6.10
2023-02-24T06:04:08.078Z,6.10
2023-02-24T06:06:52.556Z,6.10
2023-02-24T06:09:35.362Z,6.10
2023-02-24T06:12:18.778Z,6.20
2023-02-24T06:15:07.500Z,6.10
2023-02-24T06:17:50.287Z,6.20
2023-02-24T06:20:33.883Z,6.10
2023-02-24T06:23:18.096Z,6.20
2023-02-24T06:26:04.828Z,6.20
2023-02-24T06:28:48.152Z,6.20
2023-02-24T06:31:31.353Z,6.20
2023-02-24T06:34:14.157Z,6.20
2023-02-24T06:36:58.719Z,6.20
2023-02-24T06:39:42.514Z,6.20
2023-02-24T06:42:25.386Z,6.20
2023-02-24T06:45:08.440Z,6.20
2023-02-24T06:47:50.983Z,6.20
2023-02-24T06:50:33.231Z,6.20
2023-02-24T06:53:17.081Z,6.30
2023-02-24T06:56:03.152Z,6.40
2023-02-24T06:58:48.481Z,6.40
2023-02-24T07:01:30.982Z,6.30
2023-02-24T07:04:14.606Z,6.30
2023-02-24T07:07:03.118Z,6.30
2023-02-24T07:09:46.137Z,6.30
2023-02-24T07:12:29.281Z,6.30
2023-02-24T07:15:13.808Z,6.30
2023-02-24T07:17:55.954Z,6.30
2023-02-24T07:20:43.695Z,6.30
2023-02-24T07:23:25.858Z,6.40
2023-02-24T07:26:10.395Z,6.30
2023-02-24T07:28:58.079Z,6.30
2023-02-24T07:31:42.885Z,6.30
2023-02-24T07:34:26.668Z,6.30
2023-02-24T07:37:10.527Z,6.30
2023-02-24T07:39:52.775Z,6.50
2023-02-24T07:42:35.566Z,6.40
2023-02-24T07:45:21.440Z,6.40
2023-02-24T07:48:05.024Z,6.40
2023-02-24T07:50:48.394Z,6.50
2023-02-24T07:53:31.218Z,6.50
2023-02-24T07:56:17.533Z,6.50
2023-02-24T07:59:03.658Z,6.50
2023-02-24T08:01:51.873Z,6.40
2023-02-24T08:04:36.450Z,6.50
2023-02-24T08:07:24.979Z,6.50
2023-02-24T08:10:24.351Z,6.50
2023-02-24T08:13:06.968Z,6.50
2023-02-24T08:15:56.851Z,6.50
2023-02-24T08:18:40.577Z,6.50
2023-02-24T08:21:23.804Z,6.50
2023-02-24T08:24:06.633Z,6.40
2023-02-24T08:27:04.405Z,6.50
2023-02-24T08:29:58.525Z,6.40
2023-02-24T08:32:47.002Z,6.40
2023-02-24T08:35:32.317Z,6.40
2023-02-24T08:38:18.272Z,6.40
2023-02-24T08:41:04.974Z,6.40
2023-02-24T08:43:49.197Z,6.50
2023-02-24T08:46:37.926Z,6.50
2023-02-24T08:49:24.918Z,6.50
2023-02-24T08:52:08.568Z,6.50
2023-02-24T08:54:53.326Z,6.50
2023-02-24T08:57:35.995Z,6.50
2023-02-24T09:00:38.998Z,6.60
2023-02-24T09:03:30.125Z,6.60
2023-02-24T09:06:16.939Z,6.60
2023-02-24T09:09:19.465Z,6.60
2023-02-24T09:12:01.975Z,6.60
2023-02-24T09:14:44.302Z,6.60
2023-02-24T09:17:40.769Z,6.60
2023-02-24T09:20:43.330Z,6.60
2023-02-24T09:23:46.023Z,6.60
2023-02-24T09:26:33.011Z,6.60
2023-02-24T09:29:33.972Z,6.50
2023-02-24T09:32:16.736Z,6.40
2023-02-24T09:34:59.269Z,6.40
2023-02-24T09:37:41.435Z,6.40
2023-02-24T09:40:39.575Z,6.40
2023-02-24T09:43:30.393Z,6.30
2023-02-24T09:46:16.907Z,6.30
2023-02-24T09:49:17.301Z,6.30
2023-02-24T09:52:09.109Z,6.30
2023-02-24T09:55:13.826Z,6.20
2023-02-24T09:58:18.142Z,6.30
2023-02-24T10:01:33.290Z,6.20
2023-02-24T10:04:23.162Z,6.20
2023-02-24T10:07:39.998Z,6.20
2023-02-24T10:10:30.671Z,6.40
2023-02-24T10:13:30.349Z,6.50
2023-02-24T10:16:23.986Z,6.40
2023-02-24T10:19:27.185Z,6.50
2023-02-24T10:22:29.140Z,6.50
2023-02-24T10:25:42.457Z,6.60
2023-02-24T10:28:43.973Z,6.60
2023-02-24T10:31:59.946Z,6.60
2023-02-24T10:34:44.684Z,6.60
2023-02-24T10:37:29.612Z,6.60
2023-02-24T10:40:21.234Z,6.70
2023-02-24T10:43:10.596Z,6.90
2023-02-24T10:46:06.068Z,7.10
2023-02-24T10:49:00.488Z,7.00
2023-02-24T10:51:48.244Z,7.10
2023-02-24T10:54:33.157Z,7.10
2023-02-24T10:57:37.354Z,7.10
2023-02-24T11:00:51.916Z,7.00
2023-02-24T11:03:43.892Z,6.90
2023-02-24T11:06:42.267Z,6.90
2023-02-24T11:09:29.564Z,6.90
2023-02-24T11:12:34.476Z,6.90
2023-02-24T11:15:53.427Z,7.00
2023-02-24T11:18:36.462Z,7.20
2023-02-24T11:21:19.919Z,7.10
2023-02-24T11:24:05.949Z,7.10
2023-02-24T11:26:49.545Z,7.10
2023-02-24T11:29:46.101Z,7.10
2023-02-24T11:32:59.356Z,7.20
2023-02-24T11:36:07.494Z,7.00
2023-02-24T11:39:20.649Z,7.00
2023-02-24T11:42:10.864Z,6.90
2023-02-24T11:45:15.061Z,6.80
2023-02-24T11:48:15.188Z,6.80
2023-02-24T11:51:12.965Z,6.70
2023-02-24T11:54:13.120Z,6.70
2023-02-24T11:57:00.339Z,6.80
2023-02-24T12:00:01.505Z,6.80
2023-02-24T12:02:53.151Z,7.10
2023-02-24T12:05:47.124Z,7.00
2023-02-24T12:08:35.837Z,7.00
2023-02-24T12:11:42.030Z,7.00
2023-02-24T12:14:41.858Z,7.10
2023-02-24T12:17:36.151Z,7.10
2023-02-24T12:20:36.068Z,7.10
2023-02-24T12:23:23.869Z,7.10
2023-02-24T12:26:48.022Z,7.00
2023-02-24T12:29:50.535Z,7.00
2023-02-24T12:32:47.011Z,7.00
2023-02-24T12:35:38.238Z,7.00
2023-02-24T12:38:48.746Z,7.10
2023-02-24T12:41:42.778Z,7.10
2023-02-24T12:45:03.164Z,7.30
2023-02-24T12:48:00.902Z,7.30
2023-02-24T12:51:02.109Z,7.40
2023-02-24T12:53:57.683Z,7.30
2023-02-24T12:57:01.203Z,7.30
2023-02-24T12:59:44.212Z,7.30
2023-02-24T13:02:29.922Z,7.30
2023-02-24T13:05:27.317Z,7.40
2023-02-24T13:08:32.213Z,7.50
2023-02-24T13:11:42.366Z,7.60
2023-02-24T13:14:35.677Z,7.70
2023-02-24T13:17:21.727Z,7.50
2023-02-24T13:20:10.584Z,7.40
2023-02-24T13:22:53.227Z,7.30
2023-02-24T13:25:37.675Z,7.20
2023-02-24T13:28:31.283Z,7.20
2023-02-24T13:31:14.444Z,7.10
2023-02-24T13:33:57.269Z,7.10
2023-02-24T13:36:47.738Z,7.10
2023-02-24T13:39:39.207Z,7.00
2023-02-24T13:42:26.088Z,7.00
2023-02-24T13:45:13.249Z,7.10
2023-02-24T13:48:22.298Z,7.10
2023-02-24T13:52:01.336Z,7.10
2023-02-24T13:54:58.155Z,7.10
2023-02-24T13:58:24.202Z,7.10
2023-02-24T14:01:14.130Z,7.10
2023-02-24T14:04:13.687Z,7.20
2023-02-24T14:07:01.531Z,7.10
2023-02-24T14:09:48.563Z,7.10
2023-02-24T14:12:35.198Z,7.00
2023-02-24T14:15:24.495Z,7.00
2023-02-24T14:18:18.368Z,6.90
2023-02-24T14:21:00.880Z,6.80
2023-02-24T14:23:43.981Z,6.70
2023-02-24T14:26:27.383Z,6.60
2023-02-24T14:29:10.324Z,6.40
2023-02-24T14:31:55.316Z,6.40
2023-02-24T14:34:39.229Z,6.40
2023-02-24T14:37:30.999Z,6.40
2023-02-24T14:40:15.809Z,6.40
2023-02-24T14:42:58.420Z,6.50
2023-02-24T14:45:52.109Z,6.50
2023-02-24T14:48:34.566Z,6.60
2023-02-24T14:51:25.781Z,6.50
2023-02-24T14:54:16.319Z,6.50
2023-02-24T14:57:01.901Z,6.50
2023-02-24T14:59:49.032Z,6.50
2023-02-24T15:02:33.772Z,6.50
2023-02-24T15:05:16.916Z,6.40
2023-02-24T15:08:02.000Z,6.50
2023-02-24T15:10:47.055Z,6.50
2023-02-24T15:13:38.775Z,6.50
2023-02-24T15:16:37.123Z,6.50
2023-02-24T15:19:49.776Z,6.50
2023-02-24T15:22:39.405Z,6.50
2023-02-24T15:25:37.023Z,6.40
2023-02-24T15:28:25.605Z,6.40
2023-02-24T15:31:11.561Z,6.30
2023-02-24T15:34:02.361Z,6.30
2023-02-24T15:36:45.045Z,6.20
2023-02-24T15:39:34.293Z,6.20
2023-02-24T15:42:23.557Z,6.20
2023-02-24T15:45:23.826Z,6.20
2023-02-24T15:48:24.979Z,6.10
2023-02-24T15:51:07.854Z,6.10
2023-02-24T15:53:50.639Z,6.10
2023-02-24T15:56:35.105Z,6.00
2023-02-24T15:59:21.259Z,6.00
2023-02-24T16:02:05.887Z,5.90
2023-02-24T16:04:49.791Z,5.90
2023-02-24T16:07:35.701Z,5.90
2023-02-24T16:10:23.063Z,5.80
2023-02-24T16:13:05.774Z,5.80
2023-02-24T16:15:49.068Z,5.70
2023-02-24T16:18:31.450Z,5.70
2023-02-24T16:21:14.965Z,5.60
2023-02-24T16:23:57.199Z,5.60
2023-02-24T16:26:40.868Z,5.50
2023-02-24T16:29:23.152Z,5.50
2023-02-24T16:32:07.008Z,5.40
2023-02-24T16:34:50.283Z,5.40
2023-02-24T16:37:32.933Z,5.30
2023-02-24T16:40:25.433Z,5.30
2023-02-24T16:43:08.840Z,5.30
2023-02-24T16:45:55.562Z,5.30
2023-02-24T16:48:39.152Z,5.20
2023-02-24T16:51:22.409Z,5.20
2023-02-24T16:54:05.256Z,5.10
2023-02-24T16:56:47.772Z,5.10
2023-02-24T16:59:30.792Z,5.10
2023-02-24T17:02:23.408Z,5.00
2023-02-24T17:05:06.734Z,5.10
2023-02-24T17:07:50.742Z,5.00
2023-02-24T17:10:34.357Z,5.10
2023-02-24T17:13:19.715Z,5.10
2023-02-24T17:16:02.383Z,5.10
2023-02-24T17:18:44.848Z,5.10
2023-02-24T17:21:27.401Z,5.10
2023-02-24T17:24:16.185Z,5.00
2023-02-24T17:27:00.643Z,5.00
2023-02-24T17:29:42.841Z,5.00
2023-02-24T17:32:25.626Z,4.90
2023-02-24T17:35:08.171Z,4.90
2023-02-24T17:37:50.949Z,4.90
2023-02-24T17:40:33.218Z,4.90
2023-02-24T17:43:16.017Z,4.80
2023-02-24T17:46:01.753Z,4.80
2023-02-24T17:48:44.752Z,4.80
2023-02-24T17:51:27.736Z,4.70
2023-02-24T17:54:10.582Z,4.70
2023-02-24T17:56:52.758Z,4.70
2023-02-24T17:59:36.387Z,4.70
2023-02-24T18:02:19.137Z,4.70
2023-02-24T18:05:02.851Z,4.70
2023-02-24T18:07:45.339Z,4.70
2023-02-24T18:10:28.207Z,4.70
2023-02-24T18:13:10.378Z,4.70
2023-02-24T18:15:53.062Z,4.70
2023-02-24T18:18:35.336Z,4.70
2023-02-24T18:21:17.970Z,4.70
2023-02-24T18:24:00.499Z,4.70
2023-02-24T18:26:43.248Z,4.70
2023-02-24T18:29:25.585Z,4.60
2023-02-24T18:32:08.315Z,4.60
2023-02-24T18:34:50.687Z,4.60
2023-02-24T18:37:33.512Z,4.50
2023-02-24T18:40:15.804Z,4.40
2023-02-24T18:43:00.477Z,4.40
2023-02-24T18:45:42.802Z,4.30
2023-02-24T18:48:25.629Z,4.30
2023-02-24T18:51:08.518Z,4.30
2023-02-24T18:53:52.920Z,4.20
2023-02-24T18:56:35.827Z,4.20
2023-02-24T18:59:18.594Z,4.20
2023-02-24T19:02:00.944Z,4.20
2023-02-24T19:04:45.173Z,4.20
2023-02-24T19:07:27.756Z,4.20
2023-02-24T19:10:11.050Z,4.10
2023-02-24T19:12:53.784Z,4.20
2023-02-24T19:15:38.186Z,4.20
2023-02-24T19:18:20.626Z,4.20
2023-02-24T19:21:07.374Z,4.20
2023-02-24T19:23:50.750Z,4.30
2023-02-24T19:26:34.905Z,4.30
2023-02-24T19:29:20.322Z,4.30
2023-02-24T19:32:04.392Z,4.40
2023-02-24T19:34:48.919Z,4.40
2023-02-24T19:37:33.761Z,4.40
2023-02-24T19:40:18.733Z,4.40
2023-02-24T19:43:02.951Z,4.40
2023-02-24T19:45:46.234Z,4.40
2023-02-24T19:48:29.601Z,4.40
2023-02-24T19:51:24.641Z,4.50
2023-02-24T19:54:08.465Z,4.50
2023-02-24T19:56:52.715Z,4.50
2023-02-24T19:59:36.145Z,4.50
2023-02-24T20:02:18.485Z,4.50
2023-02-24T20:05:01.346Z,4.60
2023-02-24T20:07:44.659Z,4.60
2023-02-24T20:10:28.210Z,4.60
2023-02-24T20:13:12.341Z,4.60
2023-02-24T20:16:11.826Z,4.60
2023-02-24T20:18:55.908Z,4.50
2023-02-24T20:21:40.446Z,4.60
2023-02-24T20:24:24.010Z,4.50
2023-02-24T20:27:08.227Z,4.50
2023-02-24T20:29:53.688Z,4.50
2023-02-24T20:32:38.813Z,4.40
2023-02-24T20:35:26.626Z,4.40
2023-02-24T20:38:10.945Z,4.40
2023-02-24T20:41:00.232Z,4.30
2023-02-24T20:43:43.711Z,4.30
2023-02-24T20:46:29.946Z,4.20
2023-02-24T20:49:17.795Z,4.20
2023-02-24T20:52:00.461Z,4.10
2023-02-24T20:54:45.848Z,4.10
2023-02-24T20:57:30.502Z,4.10
2023-02-24T21:00:15.532Z,4.00
2023-02-24T21:02:58.968Z,4.00
2023-02-24T21:05:44.768Z,4.00
2023-02-24T21:08:27.774Z,4.00
2023-02-24T21:11:11.645Z,4.00
2023-02-24T21:13:54.114Z,4.00
2023-02-24T21:16:37.325Z,4.00
2023-02-24T21:19:20.290Z,4.10
2023-02-24T21:22:02.982Z,4.10
2023-02-24T21:24:45.463Z,4.10
2023-02-24T21:27:28.384Z,4.10
2023-02-24T21:30:12.444Z,4.00
2023-02-24T21:32:55.356Z,4.00
2023-02-24T21:35:37.878Z,4.00
2023-02-24T21:38:20.527Z,4.00
2023-02-24T21:41:04.407Z,4.00
2023-02-24T21:43:47.314Z,4.00
2023-02-24T21:46:30.549Z,4.00
2023-02-24T21:49:20.270Z,4.00
2023-02-24T21:52:05.500Z,4.00
2023-02-24T21:54:49.894Z,4.00
2023-02-24T21:57:32.662Z,3.90
2023-02-24T22:00:20.509Z,3.90
2023-02-24T22:03:03.292Z,3.90
2023-02-24T22:05:52.836Z,3.80
2023-02-24T22:08:37.349Z,3.80
2023-02-24T22:11:21.252Z,3.80
2023-02-24T22:14:06.619Z,3.70
2023-02-24T22:16:49.280Z,3.70
2023-02-24T22:19:31.510Z,3.60
2023-02-24T22:22:14.392Z,3.60
2023-02-24T22:24:56.795Z,3.60
2023-02-24T22:27:39.761Z,3.60
2023-02-24T22:30:22.120Z,3.60
2023-02-24T22:33:04.770Z,3.60
2023-02-24T22:35:46.961Z,3.60
2023-02-24T22:38:33.306Z,3.50
2023-02-24T22:41:18.951Z,3.60
2023-02-24T22:44:03.879Z,3.50
2023-02-24T22:46:46.886Z,3.50
2023-02-24T22:49:29.527Z,3.50
2023-02-24T22:52:11.882Z,3.40
2023-02-24T22:54:55.643Z,3.50
2023-02-24T22:57:38.012Z,3.40
2023-02-24T23:00:23.737Z,3.40
2023-02-24T23:03:06.430Z,3.40
2023-02-24T23:05:56.552Z,3.40
2023-02-24T23:08:39.681Z,3.40
2023-02-24T23:11:30.929Z,3.40
2023-02-24T23:14:14.922Z,3.40
2023-02-24T23:16:58.900Z,3.40
2023-02-24T23:19:41.231Z,3.40
2023-02-24T23:22:24.051Z,3.40
2023-02-24T23:25:12.115Z,3.40
2023-02-24T23:27:54.987Z,3.30
2023-02-24T23:30:41.739Z,3.40
2023-02-24T23:33:24.291Z,3.40
2023-02-24T23:36:07.101Z,3.40
2023-02-24T23:38:49.792Z,3.40
2023-02-24T23:41:34.224Z,3.40
2023-02-24T23:44:16.849Z,3.40
2023-02-24T23:47:01.224Z,3.40
2023-02-24T23:49:48.511Z,3.40
2023-02-24T23:52:31.044Z,3.40
2023-02-24T23:55:13.911Z,3.40
2023-02-24T23:57:56.921Z,3.40
